createdAt,value
2022-10-19T00:00:16.967Z,10.41
2022-10-19T00:02:43.740Z,10.37
2022-10-19T00:05:10.373Z,10.34
2022-10-19T00:07:37.082Z,10.32
2022-10-19T00:10:04.445Z,10.29
2022-10-19T00:12:31.105Z,10.26
2022-10-19T00:14:57.929Z,10.23
2022-10-19T00:17:24.558Z,10.20
2022-10-19T00:19:51.180Z,10.16
2022-10-19T00:22:17.855Z,10.11
2022-10-19T00:24:44.538Z,10.08
2022-10-19T00:27:11.133Z,10.03
2022-10-19T00:29:38.284Z,9.98
2022-10-19T00:32:05.054Z,9.92
2022-10-19T00:34:31.672Z,9.89
2022-10-19T00:36:58.330Z,9.85
2022-10-19T00:39:24.980Z,9.80
2022-10-19T00:41:51.698Z,9.76
2022-10-19T00:44:18.335Z,9.71
2022-10-19T00:46:46.320Z,9.67
2022-10-19T00:49:14.406Z,9.62
2022-10-19T00:51:42.440Z,9.59
2022-10-19T00:54:09.240Z,9.58
2022-10-19T00:56:36.028Z,9.56
2022-10-19T00:59:05.780Z,9.54
2022-10-19T01:01:33.007Z,9.49
2022-10-19T01:04:00.101Z,9.47
2022-10-19T01:06:26.856Z,9.42
2022-10-19T01:08:53.516Z,9.39
2022-10-19T01:11:42.053Z,9.37
2022-10-19T01:14:16.669Z,9.32
2022-10-19T01:16:54.327Z,9.27
2022-10-19T01:19:52.002Z,9.21
2022-10-19T01:22:35.300Z,9.18
2022-10-19T01:25:20.772Z,9.17
2022-10-19T01:27:53.762Z,9.16
2022-10-19T01:30:27.060Z,9.17
2022-10-19T01:33:23.611Z,9.18
2022-10-19T01:35:52.480Z,9.22
2022-10-19T01:38:41.952Z,9.26
2022-10-19T01:41:26.516Z,9.31
2022-10-19T01:44:02.205Z,9.35
2022-10-19T01:46:31.824Z,9.41
2022-10-19T01:49:19.285Z,9.47
2022-10-19T01:51:48.208Z,9.56
2022-10-19T01:54:15.734Z,9.63
2022-10-19T01:56:43.274Z,9.71
2022-10-19T01:59:11.093Z,9.79
2022-10-19T02:01:39.828Z,9.85
2022-10-19T02:04:06.453Z,9.90
2022-10-19T02:06:33.225Z,9.95
2022-10-19T02:09:00.137Z,9.99
2022-10-19T02:11:26.868Z,9.99
2022-10-19T02:13:56.904Z,10.02
2022-10-19T02:16:34.655Z,10.04
2022-10-19T02:19:01.353Z,10.07
2022-10-19T02:21:28.035Z,10.07
2022-10-19T02:23:54.718Z,10.09
2022-10-19T02:26:21.515Z,10.12
2022-10-19T02:28:48.214Z,10.16
2022-10-19T02:31:14.845Z,10.20
2022-10-19T02:33:41.529Z,10.25
2022-10-19T02:36:08.145Z,10.30
2022-10-19T02:38:34.963Z,10.33
2022-10-19T02:41:08.917Z,10.37
2022-10-19T02:43:37.433Z,10.39
2022-10-19T02:46:06.851Z,10.43
2022-10-19T02:48:33.876Z,10.47
2022-10-19T02:51:00.547Z,10.50
2022-10-19T02:53:27.229Z,10.51
2022-10-19T02:55:53.958Z,10.52
2022-10-19T02:58:20.767Z,10.53
2022-10-19T03:00:47.466Z,10.53
2022-10-19T03:03:14.187Z,10.50
2022-10-19T03:05:40.833Z,10.49
2022-10-19T03:08:07.497Z,10.47
2022-10-19T03:10:34.183Z,10.45
2022-10-19T03:13:00.885Z,10.44
2022-10-19T03:15:29.745Z,10.43
2022-10-19T03:17:56.732Z,10.41
2022-10-19T03:20:23.548Z,10.42
2022-10-19T03:22:50.525Z,10.43
2022-10-19T03:25:17.212Z,10.44
2022-10-19T03:27:44.055Z,10.46
2022-10-19T03:30:10.962Z,10.48
2022-10-19T03:32:37.576Z,10.51
2022-10-19T03:35:04.560Z,10.55
2022-10-19T03:37:31.371Z,10.60
2022-10-19T03:39:58.227Z,10.63
2022-10-19T03:42:24.856Z,10.66
2022-10-19T03:44:51.632Z,10.70
2022-10-19T03:47:18.287Z,10.71
2022-10-19T03:49:45.037Z,10.72
2022-10-19T03:52:11.678Z,10.73
2022-10-19T03:54:38.411Z,10.73
2022-10-19T03:57:05.273Z,10.73
2022-10-19T03:59:32.088Z,10.77
2022-10-19T04:01:58.724Z,10.80
2022-10-19T04:04:25.408Z,10.82
2022-10-19T04:06:53.876Z,10.85
2022-10-19T04:09:21.488Z,10.88
2022-10-19T04:11:48.712Z,10.91
2022-10-19T04:14:26.739Z,10.95
2022-10-19T04:17:00.966Z,11.00
2022-10-19T04:19:27.641Z,11.04
2022-10-19T04:21:54.273Z,11.09
2022-10-19T04:24:20.987Z,11.16
2022-10-19T04:26:49.752Z,11.23
2022-10-19T04:29:16.866Z,11.28
2022-10-19T04:31:43.565Z,11.36
2022-10-19T04:34:10.240Z,11.42
2022-10-19T04:36:37.176Z,11.49
2022-10-19T04:39:04.616Z,11.56
2022-10-19T04:41:31.360Z,11.61
2022-10-19T04:43:59.175Z,11.66
2022-10-19T04:46:26.380Z,11.70
2022-10-19T04:48:53.101Z,11.74
2022-10-19T04:51:20.045Z,11.77
2022-10-19T04:53:46.766Z,11.81
2022-10-19T04:56:23.696Z,11.85
2022-10-19T04:58:51.245Z,11.91
2022-10-19T05:01:19.933Z,11.95
2022-10-19T05:03:47.470Z,11.99
2022-10-19T05:06:14.680Z,12.01
2022-10-19T05:08:41.453Z,12.03
2022-10-19T05:11:10.479Z,12.04
2022-10-19T05:13:37.132Z,12.06
2022-10-19T05:16:05.009Z,12.07
2022-10-19T05:18:31.811Z,12.08
2022-10-19T05:21:06.517Z,12.07
2022-10-19T05:26:09.692Z,12.07
2022-10-19T05:28:36.659Z,12.07
2022-10-19T05:31:14.457Z,12.08
2022-10-19T05:33:41.420Z,12.09
2022-10-19T05:36:26.963Z,12.07
2022-10-19T05:38:55.291Z,12.04
2022-10-19T05:41:22.085Z,12.03
2022-10-19T05:43:52.769Z,12.02
2022-10-19T05:46:19.427Z,12.02
2022-10-19T05:48:46.466Z,12.01
2022-10-19T05:51:14.630Z,11.99
2022-10-19T05:53:41.520Z,11.98
2022-10-19T05:56:09.273Z,11.97
2022-10-19T05:58:36.081Z,11.99
2022-10-19T06:01:02.812Z,11.99
2022-10-19T06:03:29.496Z,12.00
2022-10-19T06:05:56.215Z,12.01
2022-10-19T06:08:23.225Z,12.02
2022-10-19T06:10:50.244Z,12.02
2022-10-19T06:13:18.109Z,12.03
2022-10-19T06:15:45.611Z,12.04
2022-10-19T06:18:12.536Z,12.06
2022-10-19T06:20:40.211Z,12.08
2022-10-19T06:23:07.215Z,12.09
2022-10-19T06:25:34.364Z,12.10
2022-10-19T06:28:01.208Z,12.12
2022-10-19T06:30:28.224Z,12.13
2022-10-19T06:32:55.160Z,12.16
2022-10-19T06:35:22.000Z,12.18
2022-10-19T06:37:48.724Z,12.21
2022-10-19T06:40:15.518Z,12.24
2022-10-19T06:42:42.395Z,12.28
2022-10-19T06:45:09.882Z,12.30
2022-10-19T06:47:37.186Z,12.33
2022-10-19T06:50:05.367Z,12.36
2022-10-19T06:52:33.232Z,12.39
2022-10-19T06:55:00.129Z,12.42
2022-10-19T06:57:27.028Z,12.45
2022-10-19T06:59:53.820Z,12.50
2022-10-19T07:02:20.973Z,12.54
2022-10-19T07:04:47.633Z,12.57
2022-10-19T07:07:14.245Z,12.60
2022-10-19T07:09:40.935Z,12.64
2022-10-19T07:12:10.748Z,12.68
2022-10-19T07:14:39.588Z,12.71
2022-10-19T07:17:07.115Z,12.75
2022-10-19T07:19:34.057Z,12.80
2022-10-19T07:22:00.740Z,12.86
2022-10-19T07:24:27.486Z,12.90
2022-10-19T07:26:54.283Z,12.95
2022-10-19T07:29:21.013Z,13.00
2022-10-19T07:31:47.876Z,13.05
2022-10-19T07:34:14.642Z,13.11
2022-10-19T07:36:45.073Z,13.18
2022-10-19T07:39:12.590Z,13.24
2022-10-19T07:41:39.389Z,13.31
2022-10-19T07:44:06.303Z,13.36
2022-10-19T07:46:37.267Z,13.39
2022-10-19T07:49:05.804Z,13.43
2022-10-19T07:51:32.485Z,13.47
2022-10-19T07:53:59.264Z,13.51
2022-10-19T07:56:26.670Z,13.56
2022-10-19T07:58:54.524Z,13.62
2022-10-19T08:01:22.872Z,13.67
2022-10-19T08:06:37.521Z,13.75
2022-10-19T08:09:05.197Z,13.78
2022-10-19T08:11:33.392Z,13.80
2022-10-19T08:14:00.230Z,13.80
2022-10-19T08:16:32.794Z,13.78
2022-10-19T08:19:01.758Z,13.75
2022-10-19T08:21:29.119Z,13.75
2022-10-19T08:23:55.832Z,13.75
2022-10-19T08:26:22.537Z,13.76
2022-10-19T08:28:49.352Z,13.78
2022-10-19T08:31:18.624Z,13.79
2022-10-19T08:33:45.462Z,13.80
2022-10-19T08:36:12.967Z,13.78
2022-10-19T08:38:39.898Z,13.77
2022-10-19T08:41:26.327Z,13.78
2022-10-19T08:44:30.806Z,13.83
2022-10-19T08:47:08.704Z,13.89
2022-10-19T08:49:35.438Z,13.95
2022-10-19T08:52:05.845Z,14.01
2022-10-19T08:54:40.846Z,14.04
2022-10-19T08:57:31.367Z,14.06
2022-10-19T09:00:28.850Z,14.07
2022-10-19T09:03:23.072Z,14.05
2022-10-19T09:06:20.084Z,14.03
2022-10-19T09:08:48.029Z,14.01
2022-10-19T09:11:14.710Z,14.01
2022-10-19T09:14:04.200Z,14.02
2022-10-19T09:16:32.207Z,14.05
2022-10-19T09:18:59.003Z,14.08
2022-10-19T09:21:48.010Z,14.11
2022-10-19T09:24:28.832Z,14.17
2022-10-19T09:26:57.448Z,14.22
2022-10-19T09:29:30.257Z,14.28
2022-10-19T09:34:32.959Z,14.48
2022-10-19T09:37:00.339Z,14.54
2022-10-19T09:39:29.694Z,14.61
2022-10-19T09:42:16.004Z,14.64
2022-10-19T09:44:42.922Z,14.68
2022-10-19T09:47:13.742Z,14.69
2022-10-19T09:49:45.102Z,14.70
2022-10-19T09:52:33.918Z,14.70
2022-10-19T09:55:03.794Z,14.71
2022-10-19T09:57:30.946Z,14.73
2022-10-19T09:59:58.065Z,14.76
2022-10-19T10:02:33.290Z,14.82
2022-10-19T10:05:09.350Z,14.86
2022-10-19T10:07:38.473Z,14.86
2022-10-19T10:10:19.256Z,14.83
2022-10-19T10:12:47.870Z,14.81
2022-10-19T10:15:20.225Z,14.82
2022-10-19T10:17:47.341Z,14.82
2022-10-19T10:20:18.970Z,14.78
2022-10-19T10:22:53.172Z,14.77
2022-10-19T10:25:19.896Z,14.81
2022-10-19T10:28:20.326Z,14.85
2022-10-19T10:30:47.134Z,14.87
2022-10-19T10:33:27.022Z,14.89
2022-10-19T10:36:08.191Z,14.91
2022-10-19T10:38:37.104Z,14.91
2022-10-19T10:41:07.874Z,14.97
2022-10-19T10:43:36.227Z,15.02
2022-10-19T10:46:07.863Z,15.10
2022-10-19T10:48:39.936Z,15.16
2022-10-19T10:51:40.309Z,15.21
2022-10-19T10:54:20.423Z,15.20
2022-10-19T10:57:14.091Z,15.19
2022-10-19T10:59:52.579Z,15.17
2022-10-19T11:02:28.300Z,15.10
2022-10-19T11:05:00.614Z,15.02
2022-10-19T11:07:28.005Z,14.98
2022-10-19T11:09:57.865Z,14.97
2022-10-19T11:13:03.080Z,14.98
2022-10-19T11:16:21.227Z,14.98
2022-10-19T11:18:50.462Z,14.96
2022-10-19T11:21:41.651Z,14.94
2022-10-19T11:24:19.110Z,14.97
2022-10-19T11:27:24.744Z,15.01
2022-10-19T11:30:11.165Z,15.05
2022-10-19T11:32:46.079Z,15.11
2022-10-19T11:35:37.328Z,15.17
2022-10-19T11:38:27.438Z,15.20
2022-10-19T11:41:28.707Z,15.20
2022-10-19T11:44:13.231Z,15.19
2022-10-19T11:46:59.130Z,15.20
2022-10-19T11:49:51.468Z,15.19
2022-10-19T11:52:35.892Z,15.18
2022-10-19T11:55:21.937Z,15.21
2022-10-19T11:57:53.252Z,15.23
2022-10-19T12:00:38.275Z,15.26
2022-10-19T12:03:25.791Z,15.32
2022-10-19T12:06:18.362Z,15.35
2022-10-19T12:08:56.368Z,15.37
2022-10-19T12:11:38.549Z,15.36
2022-10-19T12:15:54.264Z,15.33
2022-10-19T12:18:42.185Z,15.30
2022-10-19T12:21:30.567Z,15.29
2022-10-19T12:23:57.613Z,15.26
2022-10-19T12:26:24.293Z,15.26
2022-10-19T12:28:55.624Z,15.25
2022-10-19T12:31:23.757Z,15.26
2022-10-19T12:33:56.365Z,15.27
2022-10-19T12:36:41.267Z,15.28
2022-10-19T12:39:17.799Z,15.36
2022-10-19T12:42:03.546Z,15.47
2022-10-19T12:44:43.936Z,15.57
2022-10-19T12:47:12.319Z,15.61
2022-10-19T12:49:44.485Z,15.62
2022-10-19T12:52:11.308Z,15.62
2022-10-19T12:54:49.577Z,15.59
2022-10-19T12:57:23.751Z,15.54
2022-10-19T13:00:18.869Z,15.47
2022-10-19T13:02:45.505Z,15.37
2022-10-19T13:05:22.580Z,15.32
2022-10-19T13:10:24.020Z,15.20
2022-10-19T13:12:50.798Z,15.17
2022-10-19T13:15:35.937Z,15.16
2022-10-19T13:18:03.036Z,15.10
2022-10-19T13:20:29.822Z,15.07
2022-10-19T13:22:59.732Z,15.04
2022-10-19T13:25:33.302Z,15.03
2022-10-19T13:28:23.033Z,15.03
2022-10-19T13:30:49.824Z,14.99
2022-10-19T13:33:24.712Z,14.95
2022-10-19T13:36:02.994Z,14.93
2022-10-19T13:38:48.718Z,14.88
2022-10-19T13:41:24.097Z,14.84
2022-10-19T13:44:09.216Z,14.81
2022-10-19T13:46:40.072Z,14.78
2022-10-19T13:49:32.503Z,14.74
2022-10-19T13:52:05.700Z,14.72
2022-10-19T13:54:51.302Z,14.71
2022-10-19T13:57:37.513Z,14.69
2022-10-19T14:00:14.327Z,14.66
2022-10-19T14:03:06.648Z,14.62
2022-10-19T14:05:39.019Z,14.57
2022-10-19T14:08:24.450Z,14.55
2022-10-19T14:11:03.657Z,14.53
2022-10-19T14:13:31.388Z,14.53
2022-10-19T14:15:58.944Z,14.54
2022-10-19T14:18:35.886Z,14.54
2022-10-19T14:21:04.939Z,14.54
2022-10-19T14:23:41.933Z,14.51
2022-10-19T14:26:16.999Z,14.49
2022-10-19T14:28:43.913Z,14.45
2022-10-19T14:31:17.192Z,14.43
2022-10-19T14:33:46.990Z,14.38
2022-10-19T14:36:21.165Z,14.34
2022-10-19T14:38:49.332Z,14.28
2022-10-19T14:41:37.381Z,14.24
2022-10-19T14:44:37.681Z,14.22
2022-10-19T14:47:17.228Z,14.18
2022-10-19T14:49:43.965Z,14.15
2022-10-19T14:52:11.241Z,14.14
2022-10-19T14:54:41.266Z,14.11
2022-10-19T14:57:15.877Z,14.09
2022-10-19T14:59:50.656Z,14.06
2022-10-19T15:02:21.060Z,14.04
2022-10-19T15:04:47.861Z,14.04
2022-10-19T15:07:20.548Z,14.02
2022-10-19T15:10:00.542Z,14.00
2022-10-19T15:12:29.819Z,13.97
2022-10-19T15:14:56.716Z,13.96
2022-10-19T15:17:25.864Z,13.94
2022-10-19T15:19:53.661Z,13.92
2022-10-19T15:22:29.349Z,13.90
2022-10-19T15:25:02.191Z,13.89
2022-10-19T15:27:40.208Z,13.86
2022-10-19T15:30:07.284Z,13.84
2022-10-19T15:32:36.387Z,13.80
2022-10-19T15:35:21.544Z,13.77
2022-10-19T15:37:48.679Z,13.72
2022-10-19T15:40:29.104Z,13.69
2022-10-19T15:42:55.754Z,13.65
2022-10-19T15:45:32.043Z,13.61
2022-10-19T15:48:10.846Z,13.59
2022-10-19T15:50:45.245Z,13.54
2022-10-19T15:53:12.130Z,13.52
2022-10-19T15:55:38.842Z,13.50
2022-10-19T15:58:05.598Z,13.47
2022-10-19T16:00:32.584Z,13.45
2022-10-19T16:02:59.250Z,13.43
2022-10-19T16:05:25.974Z,13.41
2022-10-19T16:07:52.669Z,13.39
2022-10-19T16:10:21.308Z,13.35
2022-10-19T16:12:48.018Z,13.33
2022-10-19T16:15:17.477Z,13.31
2022-10-19T16:17:45.044Z,13.29
2022-10-19T16:20:11.689Z,13.26
2022-10-19T16:22:38.358Z,13.24
2022-10-19T16:25:05.726Z,13.23
2022-10-19T16:27:32.662Z,13.21
2022-10-19T16:29:59.520Z,13.21
2022-10-19T16:32:26.213Z,13.20
2022-10-19T16:34:52.953Z,13.20
2022-10-19T16:37:19.571Z,13.19
2022-10-19T16:39:46.492Z,13.17
2022-10-19T16:42:13.423Z,13.13
2022-10-19T16:44:40.145Z,13.10
2022-10-19T16:47:06.799Z,13.10
2022-10-19T16:49:33.576Z,13.09
2022-10-19T16:52:01.713Z,13.10
2022-10-19T16:54:32.698Z,13.11
2022-10-19T16:56:59.384Z,13.11
2022-10-19T16:59:26.035Z,13.09
2022-10-19T17:01:53.855Z,13.06
2022-10-19T17:04:20.717Z,13.04
2022-10-19T17:06:47.534Z,13.02
2022-10-19T17:12:01.136Z,13.00
2022-10-19T17:14:27.947Z,12.96
2022-10-19T17:16:54.692Z,12.95
2022-10-19T17:19:21.602Z,12.93
2022-10-19T17:21:49.457Z,12.90
2022-10-19T17:24:21.656Z,12.86
2022-10-19T17:26:50.187Z,12.77
2022-10-19T17:29:16.929Z,12.72
2022-10-19T17:31:43.649Z,12.67
2022-10-19T17:34:10.886Z,12.63
2022-10-19T17:39:17.780Z,12.60
2022-10-19T17:41:48.347Z,12.57
2022-10-19T17:44:15.430Z,12.52
2022-10-19T17:46:42.414Z,12.48
2022-10-19T17:49:09.838Z,12.44
2022-10-19T17:51:36.945Z,12.40
2022-10-19T17:54:08.754Z,12.37
2022-10-19T17:56:36.236Z,12.34
2022-10-19T17:59:03.235Z,12.32
2022-10-19T18:01:30.218Z,12.30
2022-10-19T18:03:57.131Z,12.29
2022-10-19T18:06:25.648Z,12.27
2022-10-19T18:08:53.946Z,12.23
2022-10-19T18:11:22.454Z,12.17
2022-10-19T18:13:52.054Z,12.10
2022-10-19T18:16:24.441Z,12.02
2022-10-19T18:18:51.984Z,11.96
2022-10-19T18:21:20.488Z,11.92
2022-10-19T18:23:47.544Z,11.89
2022-10-19T18:26:16.276Z,11.87
2022-10-19T18:28:43.163Z,11.85
2022-10-19T18:31:12.358Z,11.83
2022-10-19T18:33:39.860Z,11.79
2022-10-19T18:36:07.613Z,11.77
2022-10-19T18:38:34.337Z,11.73
2022-10-19T18:43:50.000Z,11.69
2022-10-19T18:46:17.941Z,11.66
2022-10-19T18:48:44.796Z,11.64
2022-10-19T18:51:11.492Z,11.64
2022-10-19T18:53:38.433Z,11.63
2022-10-19T18:56:07.115Z,11.61
2022-10-19T18:58:34.037Z,11.59
2022-10-19T19:01:08.468Z,11.58
2022-10-19T19:03:35.394Z,11.57
2022-10-19T19:06:03.154Z,11.55
2022-10-19T19:08:30.091Z,11.54
2022-10-19T19:10:56.994Z,11.52
2022-10-19T19:13:23.858Z,11.48
2022-10-19T19:15:59.572Z,11.46
2022-10-19T19:18:26.427Z,11.41
2022-10-19T19:20:53.066Z,11.38
2022-10-19T19:23:20.057Z,11.35
2022-10-19T19:25:46.923Z,11.30
2022-10-19T19:28:13.772Z,11.23
2022-10-19T19:30:44.841Z,11.15
2022-10-19T19:33:12.950Z,11.10
2022-10-19T19:35:46.495Z,11.08
2022-10-19T19:38:13.312Z,11.05
2022-10-19T19:40:43.548Z,11.03
2022-10-19T19:43:10.511Z,11.00
2022-10-19T19:45:37.396Z,10.97
2022-10-19T19:48:04.470Z,10.94
2022-10-19T19:50:31.689Z,10.94
2022-10-19T19:52:58.702Z,10.91
2022-10-19T19:55:26.064Z,10.88
2022-10-19T19:57:54.388Z,10.87
2022-10-19T20:00:22.056Z,10.85
2022-10-19T20:02:55.638Z,10.81
2022-10-19T20:05:22.395Z,10.75
2022-10-19T20:07:49.380Z,10.71
2022-10-19T20:10:16.265Z,10.68
2022-10-19T20:12:43.736Z,10.66
2022-10-19T20:15:11.105Z,10.66
2022-10-19T20:17:38.370Z,10.66
2022-10-19T20:20:05.672Z,10.65
2022-10-19T20:22:32.330Z,10.65
2022-10-19T20:24:59.093Z,10.65
2022-10-19T20:27:25.981Z,10.63
2022-10-19T20:29:58.608Z,10.62
2022-10-19T20:32:26.141Z,10.60
2022-10-19T20:34:52.911Z,10.59
2022-10-19T20:37:20.277Z,10.61
2022-10-19T20:39:47.656Z,10.61
2022-10-19T20:42:14.949Z,10.61
2022-10-19T20:44:41.592Z,10.60
2022-10-19T20:47:08.380Z,10.60
2022-10-19T20:49:35.089Z,10.59
2022-10-19T20:52:01.717Z,10.59
2022-10-19T20:54:28.433Z,10.59
2022-10-19T20:56:55.076Z,10.57
2022-10-19T20:59:22.734Z,10.54
2022-10-19T21:01:54.560Z,10.53
2022-10-19T21:04:23.217Z,10.51
2022-10-19T21:06:50.681Z,10.45
2022-10-19T21:09:19.175Z,10.33
2022-10-19T21:11:46.151Z,10.21
2022-10-19T21:14:17.644Z,10.11
2022-10-19T21:16:44.446Z,10.03
2022-10-19T21:19:13.549Z,9.94
2022-10-19T21:21:44.682Z,9.85
2022-10-19T21:24:14.359Z,9.77
2022-10-19T21:26:41.280Z,9.68
2022-10-19T21:29:09.669Z,9.62
2022-10-19T21:31:37.433Z,9.54
2022-10-19T21:34:08.209Z,9.43
2022-10-19T21:36:34.936Z,9.34
2022-10-19T21:39:01.939Z,9.26
2022-10-19T21:41:28.734Z,9.16
2022-10-19T21:43:55.418Z,9.10
2022-10-19T21:46:22.853Z,9.07
2022-10-19T21:48:50.051Z,9.02
2022-10-19T21:51:16.798Z,8.97
2022-10-19T21:53:44.091Z,8.92
2022-10-19T21:56:10.870Z,8.86
2022-10-19T21:58:37.549Z,8.79
2022-10-19T22:01:08.451Z,8.74
2022-10-19T22:03:35.224Z,8.70
2022-10-19T22:06:02.018Z,8.66
2022-10-19T22:08:28.997Z,8.62
2022-10-19T22:10:56.076Z,8.53
2022-10-19T22:13:22.724Z,8.46
2022-10-19T22:15:49.416Z,8.41
2022-10-19T22:18:16.155Z,8.38
2022-10-19T22:20:42.851Z,8.31
2022-10-19T22:23:09.650Z,8.25
2022-10-19T22:25:36.600Z,8.21
2022-10-19T22:28:03.538Z,8.17
2022-10-19T22:30:30.280Z,8.13
2022-10-19T22:32:56.990Z,8.07
2022-10-19T22:38:25.231Z,7.93
2022-10-19T22:40:51.863Z,7.85
2022-10-19T22:43:18.545Z,7.73
2022-10-19T22:45:48.840Z,7.66
2022-10-19T22:48:16.434Z,7.59
2022-10-19T22:50:43.352Z,7.50
2022-10-19T22:53:10.150Z,7.45
2022-10-19T22:55:36.952Z,7.41
2022-10-19T22:58:04.650Z,7.38
2022-10-19T23:00:31.338Z,7.32
2022-10-19T23:02:58.056Z,7.28
2022-10-19T23:05:24.671Z,7.24
2022-10-19T23:07:51.377Z,7.20
2022-10-19T23:10:18.099Z,7.18
2022-10-19T23:12:49.073Z,7.16
2022-10-19T23:15:15.805Z,7.14
2022-10-19T23:17:42.438Z,7.10
2022-10-19T23:20:09.777Z,7.08
2022-10-19T23:22:36.441Z,7.04
2022-10-19T23:25:03.148Z,6.96
2022-10-19T23:27:29.812Z,6.91
2022-10-19T23:29:56.591Z,6.87
2022-10-19T23:32:23.237Z,6.82
2022-10-19T23:34:49.982Z,6.76
2022-10-19T23:37:16.654Z,6.67
2022-10-19T23:39:43.352Z,6.61
2022-10-19T23:42:10.004Z,6.56
2022-10-19T23:44:36.647Z,6.50
2022-10-19T23:47:03.296Z,6.48
2022-10-19T23:49:29.939Z,6.44
2022-10-19T23:51:56.616Z,6.41
2022-10-19T23:54:23.361Z,6.37
2022-10-19T23:56:50.005Z,6.34
2022-10-19T23:59:16.723Z,6.32
